Time;durP1;ratioP1;P1;durP2;ratioP2;P2;SDS_P1;SDS_P2;PMS_P1;PMS_P2;Temp;Humidity;BMP_temperature;BMP_pressure;BME280_temperature;BME280_humidity;BME280_pressure;Samples;Min_cycle;Max_cycle;Signal;HPM_P1;HPM_P2
2023/09/05 00:31:35;;;;;;;;;;;16.20;99.90;;;;;;5744125;22;19913;-77
2023/09/05 00:34:23;;;;;;;;;;;16.00;99.90;;;;;;5024813;28;19921;-78
2023/09/05 00:37:22;;;;;;;;;;;15.90;99.90;;;;;;5039961;28;19924;-77
2023/09/05 00:40:40;;;;;;;;;;;16.10;99.90;;;;;;5033265;28;19953;-77
2023/09/05 00:43:53;;;;;;;;;;;16.10;99.90;;;;;;5004214;28;20129;-77
2023/09/05 00:50:05;;;;;;;;;;;16.00;99.90;;;;;;5032156;28;19924;-77
2023/09/05 00:53:00;;;;;;;;;;;15.90;99.90;;;;;;5027680;28;19909;-77
2023/09/05 01:01:42;;;;;;;;;;;16.10;99.90;;;;;;5006772;28;19916;-77
2023/09/05 01:04:16;;;;;;;;;;;16.00;99.90;;;;;;5022181;28;19913;-77
2023/09/05 01:07:42;;;;;;;;;;;15.90;99.90;;;;;;5020734;28;19965;-77
2023/09/05 01:10:37;;;;;;;;;;;15.90;99.90;;;;;;4932899;28;19906;-78
2023/09/05 01:13:28;;;;;;;;;;;15.90;99.90;;;;;;5005419;28;19916;-77
2023/09/05 01:16:20;;;;;;;;;;;15.90;99.90;;;;;;5003183;28;19913;-80
2023/09/05 01:19:12;;;;;;;;;;;15.50;99.90;;;;;;4991443;28;20798;-77
2023/09/05 01:21:40;;;;;;;;;;;15.70;99.90;;;;;;5001042;28;19917;-78
2023/09/05 01:24:20;;;;;;;;;;;15.70;99.90;;;;;;5011286;28;19998;-76
2023/09/05 01:26:47;;;;;;;;;;;15.70;99.90;;;;;;5018169;28;20711;-78
2023/09/05 01:29:17;;;;;;;;;;;15.70;99.90;;;;;;5019557;28;20584;-78
2023/09/05 01:31:45;;;;;;;;;;;15.70;99.90;;;;;;5032289;28;20218;-78
2023/09/05 01:34:11;;;;;;;;;;;15.70;99.90;;;;;;5017406;28;19940;-77
2023/09/05 01:36:37;;;;;;;;;;;15.60;99.90;;;;;;5029528;28;19913;-80
2023/09/05 01:39:03;;;;;;;;;;;15.60;99.90;;;;;;5028654;28;19917;-78
2023/09/05 01:41:29;;;;;;;;;;;15.50;99.90;;;;;;5015114;28;19909;-77
2023/09/05 01:43:56;;;;;;;;;;;15.50;99.90;;;;;;5035851;28;19920;-78
2023/09/05 01:46:21;;;;;;;;;;;15.40;99.90;;;;;;5031983;28;19909;-80
2023/09/05 01:48:47;;;;;;;;;;;15.00;99.90;;;;;;5026111;28;19906;-80
2023/09/05 01:51:13;;;;;;;;;;;15.40;99.90;;;;;;5032764;28;19913;-80
2023/09/05 01:53:39;;;;;;;;;;;15.30;99.90;;;;;;5026487;28;19909;-80
2023/09/05 01:56:05;;;;;;;;;;;14.60;99.90;;;;;;5024381;28;19909;-80
2023/09/05 01:58:31;;;;;;;;;;;15.30;99.90;;;;;;5024887;28;19905;-76
2023/09/05 02:01:03;;;;;;;;;;;15.30;99.90;;;;;;5027616;28;19905;-80
2023/09/05 02:03:29;;;;;;;;;;;15.20;99.90;;;;;;5024133;28;19905;-78
2023/09/05 02:05:55;;;;;;;;;;;15.20;99.90;;;;;;5032048;28;19916;-80
2023/09/05 02:08:21;;;;;;;;;;;15.10;99.90;;;;;;5026618;28;19909;-77
2023/09/05 02:10:47;;;;;;;;;;;15.20;99.90;;;;;;5026499;28;19914;-78
2023/09/05 02:13:14;;;;;;;;;;;15.10;99.90;;;;;;5030964;28;19920;-80
2023/09/05 02:15:42;;;;;;;;;;;15.10;99.90;;;;;;5003189;28;19936;-79
2023/09/05 02:18:10;;;;;;;;;;;15.10;99.90;;;;;;5025946;28;19905;-80
2023/09/05 02:20:40;;;;;;;;;;;15.10;99.90;;;;;;5020619;28;19959;-79
2023/09/05 02:23:05;;;;;;;;;;;15.10;99.90;;;;;;5022209;28;20008;-80
2023/09/05 02:25:31;;;;;;;;;;;15.10;99.90;;;;;;5019673;28;20358;-80
2023/09/05 02:27:57;;;;;;;;;;;15.10;99.90;;;;;;5013823;28;19908;-80
2023/09/05 02:30:22;;;;;;;;;;;15.10;99.90;;;;;;5020112;28;19905;-79
2023/09/05 02:32:51;;;;;;;;;;;15.10;99.90;;;;;;5017803;28;19944;-79
2023/09/05 02:35:20;;;;;;;;;;;15.10;99.90;;;;;;5024381;28;19921;-79
2023/09/05 02:37:48;;;;;;;;;;;15.10;99.90;;;;;;4997107;28;20004;-79
2023/09/05 02:40:14;;;;;;;;;;;15.10;99.90;;;;;;5017455;28;19967;-78
2023/09/05 02:42:39;;;;;;;;;;;15.00;99.90;;;;;;5002237;28;19905;-79
2023/09/05 02:45:05;;;;;;;;;;;15.00;99.90;;;;;;4997323;28;19916;-77
2023/09/05 02:47:31;;;;;;;;;;;15.00;99.90;;;;;;5003884;28;19932;-79
2023/09/05 02:49:56;;;;;;;;;;;15.00;99.90;;;;;;5019647;28;20336;-80
2023/09/05 02:52:24;;;;;;;;;;;15.00;99.90;;;;;;5015933;28;20384;-79
2023/09/05 02:54:50;;;;;;;;;;;15.00;99.90;;;;;;5014479;28;19919;-79
2023/09/05 02:57:16;;;;;;;;;;;14.90;99.90;;;;;;5014685;28;20359;-79
2023/09/05 02:59:41;;;;;;;;;;;14.90;99.90;;;;;;5017673;28;19963;-79
2023/09/05 03:02:07;;;;;;;;;;;14.90;99.90;;;;;;4997385;28;20403;-78
2023/09/05 03:04:32;;;;;;;;;;;14.90;99.90;;;;;;5017463;28;20263;-80
2023/09/05 03:07:01;;;;;;;;;;;14.90;99.90;;;;;;5015111;28;20153;-78
2023/09/05 03:09:28;;;;;;;;;;;14.90;99.90;;;;;;5017006;28;19905;-80
2023/09/05 03:11:54;;;;;;;;;;;14.80;99.90;;;;;;5015209;28;19909;-78
2023/09/05 03:14:19;;;;;;;;;;;14.80;99.90;;;;;;5022879;28;19919;-78
2023/09/05 03:16:45;;;;;;;;;;;14.70;99.90;;;;;;5017195;28;19913;-78
2023/09/05 03:19:11;;;;;;;;;;;14.70;99.90;;;;;;5001305;28;20400;-79
2023/09/05 03:21:40;;;;;;;;;;;14.70;99.90;;;;;;5018561;28;19920;-79
2023/09/05 03:24:06;;;;;;;;;;;14.70;99.90;;;;;;5011014;28;20427;-79
2023/09/05 03:26:31;;;;;;;;;;;14.70;99.90;;;;;;5010376;28;20039;-78
2023/09/05 03:28:59;;;;;;;;;;;14.70;99.90;;;;;;5012985;28;19909;-79
2023/09/05 03:31:28;;;;;;;;;;;14.70;99.90;;;;;;4991389;28;19909;-79
2023/09/05 03:33:54;;;;;;;;;;;14.70;99.90;;;;;;5013335;28;19921;-78
2023/09/05 03:36:21;;;;;;;;;;;14.60;99.90;;;;;;4995586;28;19971;-79
2023/09/05 03:38:47;;;;;;;;;;;14.60;99.90;;;;;;5014966;28;20327;-79
2023/09/05 03:41:12;;;;;;;;;;;14.50;99.90;;;;;;4997280;28;19976;-79
2023/09/05 03:43:38;;;;;;;;;;;14.50;99.90;;;;;;5017510;28;19916;-79
2023/09/05 03:46:04;;;;;;;;;;;14.40;99.90;;;;;;5009392;28;19901;-79
2023/09/05 03:48:29;;;;;;;;;;;14.40;99.90;;;;;;5018058;28;19912;-79
2023/09/05 03:50:55;;;;;;;;;;;14.40;99.90;;;;;;5016677;28;20271;-79
2023/09/05 03:53:20;;;;;;;;;;;14.30;99.90;;;;;;5013706;28;20004;-79
2023/09/05 03:55:47;;;;;;;;;;;14.30;99.90;;;;;;5011786;28;19928;-76
2023/09/05 03:58:13;;;;;;;;;;;14.30;99.90;;;;;;5013127;28;19909;-76
2023/09/05 04:00:38;;;;;;;;;;;14.20;99.90;;;;;;5014515;28;20295;-77
2023/09/05 04:03:04;;;;;;;;;;;14.20;99.90;;;;;;5010010;28;19913;-77
2023/09/05 04:05:30;;;;;;;;;;;14.20;99.90;;;;;;4998642;28;20352;-77
2023/09/05 04:07:55;;;;;;;;;;;14.20;99.90;;;;;;5012484;28;19924;-77
2023/09/05 04:10:22;;;;;;;;;;;14.20;99.90;;;;;;5015512;28;20205;-77
2023/09/05 04:12:49;;;;;;;;;;;14.20;99.90;;;;;;5010932;28;19914;-76
2023/09/05 04:15:20;;;;;;;;;;;14.20;99.90;;;;;;5009110;28;19917;-77
2023/09/05 04:17:46;;;;;;;;;;;14.10;99.90;;;;;;5015866;28;20763;-77
2023/09/05 04:20:13;;;;;;;;;;;14.10;99.90;;;;;;5009359;28;19905;-77
2023/09/05 04:22:38;;;;;;;;;;;14.00;99.90;;;;;;5013876;28;19909;-76
2023/09/05 04:25:04;;;;;;;;;;;14.10;99.90;;;;;;5017129;28;20594;-77
2023/09/05 04:27:30;;;;;;;;;;;14.10;99.90;;;;;;5013496;28;19920;-78
2023/09/05 04:29:55;;;;;;;;;;;14.10;99.90;;;;;;5013042;28;19945;-74
2023/09/05 04:32:27;;;;;;;;;;;14.10;99.90;;;;;;4993844;28;20665;-74
2023/09/05 04:34:54;;;;;;;;;;;14.20;99.90;;;;;;5005446;28;19919;-73
2023/09/05 04:37:20;;;;;;;;;;;14.10;99.90;;;;;;5008761;28;19919;-75
2023/09/05 04:39:45;;;;;;;;;;;14.20;99.90;;;;;;5006859;28;19913;-74
2023/09/05 04:42:11;;;;;;;;;;;14.20;99.90;;;;;;5011446;28;19916;-74
2023/09/05 04:44:36;;;;;;;;;;;14.30;99.90;;;;;;5010227;28;19909;-74
2023/09/05 04:47:21;;;;;;;;;;;14.30;99.90;;;;;;5010721;28;19932;-74
2023/09/05 04:49:48;;;;;;;;;;;14.40;99.90;;;;;;4992179;28;20312;-75
2023/09/05 04:52:14;;;;;;;;;;;14.50;99.90;;;;;;5012654;28;20023;-74
2023/09/05 04:54:40;;;;;;;;;;;14.60;99.90;;;;;;5012128;28;20070;-79
2023/09/05 04:57:06;;;;;;;;;;;14.80;99.90;;;;;;5010141;28;20203;-78
2023/09/05 04:59:31;;;;;;;;;;;15.00;99.90;;;;;;5010732;28;20198;-78
2023/09/05 05:01:57;;;;;;;;;;;15.20;99.90;;;;;;5002474;28;19905;-75
2023/09/05 05:04:22;;;;;;;;;;;15.60;99.90;;;;;;5012367;28;20225;-78
2023/09/05 05:06:48;;;;;;;;;;;15.90;99.90;;;;;;4996516;28;19943;-77
2023/09/05 05:09:13;;;;;;;;;;;16.10;99.90;;;;;;5015049;28;20287;-78
2023/09/05 05:11:39;;;;;;;;;;;16.60;99.90;;;;;;5016728;28;20360;-75
2023/09/05 05:14:04;;;;;;;;;;;17.60;99.90;;;;;;5017247;28;20336;-77
2023/09/05 05:16:30;;;;;;;;;;;18.10;99.90;;;;;;5010694;28;20025;-77
2023/09/05 05:18:56;;;;;;;;;;;18.10;99.90;;;;;;5018618;28;19913;-78
2023/09/05 05:21:21;;;;;;;;;;;17.90;99.90;;;;;;4995165;28;20351;-77
2023/09/05 05:23:47;;;;;;;;;;;17.80;99.90;;;;;;5017390;28;19971;-77
2023/09/05 05:26:13;;;;;;;;;;;17.90;99.90;;;;;;5016312;28;19920;-74
2023/09/05 05:28:39;;;;;;;;;;;18.20;99.90;;;;;;5009502;28;19909;-76
2023/09/05 05:31:11;;;;;;;;;;;18.50;99.90;;;;;;5011511;28;20302;-76
2023/09/05 05:33:37;;;;;;;;;;;19.00;99.90;;;;;;5009528;28;19916;-75
2023/09/05 05:36:02;;;;;;;;;;;19.00;99.90;;;;;;5012156;28;20232;-75
2023/09/05 05:38:29;;;;;;;;;;;19.20;99.90;;;;;;5011545;28;19909;-74
2023/09/05 05:40:56;;;;;;;;;;;19.50;99.90;;;;;;5010826;28;19909;-77
2023/09/05 05:43:21;;;;;;;;;;;19.60;99.90;;;;;;5008460;28;20237;-79
2023/09/05 05:45:52;;;;;;;;;;;19.80;99.90;;;;;;4994597;28;19906;-77
2023/09/05 05:48:17;;;;;;;;;;;20.10;99.90;;;;;;5006679;28;19912;-75
2023/09/05 05:50:43;;;;;;;;;;;20.30;99.90;;;;;;5019838;28;20593;-77
2023/09/05 05:53:08;;;;;;;;;;;20.80;99.90;;;;;;5015990;28;19905;-77
2023/09/05 05:55:34;;;;;;;;;;;21.10;99.90;;;;;;5019125;28;19947;-77
2023/09/05 05:58:00;;;;;;;;;;;21.70;99.90;;;;;;5004851;28;19909;-77
2023/09/05 06:00:27;;;;;;;;;;;22.30;99.70;;;;;;4998946;28;20275;-76
2023/09/05 06:02:52;;;;;;;;;;;21.90;99.60;;;;;;5006029;28;19932;-77
2023/09/05 06:05:18;;;;;;;;;;;22.10;99.50;;;;;;4997292;28;19913;-76
2023/09/05 06:07:43;;;;;;;;;;;22.20;99.20;;;;;;4999527;28;19913;-62
2023/09/05 06:10:09;;;;;;;;;;;22.10;99.30;;;;;;5013756;28;20494;-76
2023/09/05 06:12:35;;;;;;;;;;;21.80;98.60;;;;;;5015291;28;20272;-77
2023/09/05 06:15:00;;;;;;;;;;;21.90;99.80;;;;;;5005189;28;20465;-76
2023/09/05 06:17:26;;;;;;;;;;;22.10;98.20;;;;;;5001979;28;19913;-77
2023/09/05 06:19:51;;;;;;;;;;;22.70;98.20;;;;;;5014479;28;19913;-77
2023/09/05 06:22:17;;;;;;;;;;;23.00;97.90;;;;;;5014465;28;19995;-78
2023/09/05 06:24:43;;;;;;;;;;;22.90;96.80;;;;;;5014289;28;19994;-75
2023/09/05 06:27:09;;;;;;;;;;;22.70;97.30;;;;;;5009325;28;19948;-79
2023/09/05 06:29:35;;;;;;;;;;;23.50;96.70;;;;;;4991352;28;20503;-79
2023/09/05 06:32:00;;;;;;;;;;;23.20;95.90;;;;;;4999127;28;20600;-77
2023/09/05 06:34:26;;;;;;;;;;;22.90;96.30;;;;;;5012517;28;20356;-79
2023/09/05 06:36:52;;;;;;;;;;;23.50;96.00;;;;;;5012988;28;19924;-79
2023/09/05 06:39:18;;;;;;;;;;;24.40;95.50;;;;;;5013750;28;20627;-78
2023/09/05 06:41:44;;;;;;;;;;;24.70;94.20;;;;;;5015822;28;19913;-78
2023/09/05 06:44:10;;;;;;;;;;;25.20;93.30;;;;;;5013153;28;20094;-78
2023/09/05 06:46:36;;;;;;;;;;;25.70;92.40;;;;;;4992847;28;20110;-77
2023/09/05 06:49:02;;;;;;;;;;;26.30;91.40;;;;;;5013319;28;19932;-76
2023/09/05 06:51:29;;;;;;;;;;;25.50;91.60;;;;;;5010089;28;19909;-74
2023/09/05 06:53:54;;;;;;;;;;;26.70;90.80;;;;;;5013397;28;19909;-76
2023/09/05 06:56:21;;;;;;;;;;;27.40;88.20;;;;;;5008821;28;19909;-81
2023/09/05 06:58:47;;;;;;;;;;;27.70;88.50;;;;;;4990306;28;19928;-77
2023/09/05 07:01:13;;;;;;;;;;;29.70;82.70;;;;;;5012192;28;20523;-67
2023/09/05 07:03:38;;;;;;;;;;;31.00;78.80;;;;;;4998916;28;19905;-65
2023/09/05 07:06:04;;;;;;;;;;;31.60;74.70;;;;;;5006248;28;19924;-65
2023/09/05 07:08:30;;;;;;;;;;;30.30;74.70;;;;;;5012021;28;20406;-65
2023/09/05 07:10:56;;;;;;;;;;;30.00;75.60;;;;;;4993568;28;19909;-65
2023/09/05 07:13:21;;;;;;;;;;;30.70;74.50;;;;;;5009641;28;20320;-65
2023/09/05 07:15:47;;;;;;;;;;;29.60;73.90;;;;;;5002301;28;20256;-65
2023/09/05 07:18:12;;;;;;;;;;;28.20;75.60;;;;;;5007338;28;19909;-65
2023/09/05 07:20:38;;;;;;;;;;;28.70;76.80;;;;;;5012181;28;20304;-66
2023/09/05 07:23:04;;;;;;;;;;;29.10;74.80;;;;;;5012497;28;19909;-65
2023/09/05 07:25:30;;;;;;;;;;;29.00;75.40;;;;;;5009721;28;19916;-65
2023/09/05 07:27:55;;;;;;;;;;;29.10;74.50;;;;;;5010337;28;19931;-65
2023/09/05 07:30:21;;;;;;;;;;;29.70;73.40;;;;;;4994053;28;19904;-66
2023/09/05 07:32:46;;;;;;;;;;;29.40;73.00;;;;;;5011677;28;19929;-65
2023/09/05 07:35:12;;;;;;;;;;;28.10;74.50;;;;;;5008616;28;20427;-66
2023/09/05 07:37:38;;;;;;;;;;;28.40;74.40;;;;;;5004965;28;19920;-66
2023/09/05 07:40:05;;;;;;;;;;;29.10;74.50;;;;;;5008486;28;19905;-66
2023/09/05 07:42:31;;;;;;;;;;;29.50;74.40;;;;;;4992833;28;19905;-66
2023/09/05 07:44:56;;;;;;;;;;;30.10;71.70;;;;;;5003771;28;19909;-65
2023/09/05 07:47:22;;;;;;;;;;;30.40;72.00;;;;;;5010504;28;19967;-65
2023/09/05 07:49:47;;;;;;;;;;;31.00;70.60;;;;;;5006662;28;19971;-65
2023/09/05 07:52:13;;;;;;;;;;;31.20;69.90;;;;;;5011082;28;19980;-65
2023/09/05 07:54:39;;;;;;;;;;;30.50;70.10;;;;;;5010529;28;19905;-65
2023/09/05 07:57:04;;;;;;;;;;;30.70;70.20;;;;;;5011205;28;20902;-64
2023/09/05 07:59:31;;;;;;;;;;;31.00;68.20;;;;;;5008260;28;19975;-65
2023/09/05 08:01:57;;;;;;;;;;;32.00;67.90;;;;;;5006050;28;20339;-65
2023/09/05 08:04:22;;;;;;;;;;;33.50;65.50;;;;;;5012424;28;19909;-71
2023/09/05 08:06:48;;;;;;;;;;;33.00;65.20;;;;;;5009028;28;19913;-70
2023/09/05 08:09:14;;;;;;;;;;;33.50;65.10;;;;;;5009208;28;21397;-70
2023/09/05 08:11:39;;;;;;;;;;;36.00;62.70;;;;;;5012023;28;19944;-70
2023/09/05 08:14:05;;;;;;;;;;;37.00;58.80;;;;;;4993701;28;19916;-70
2023/09/05 08:16:31;;;;;;;;;;;36.00;58.70;;;;;;4992280;28;20394;-70
2023/09/05 08:18:56;;;;;;;;;;;34.60;59.60;;;;;;5011676;28;20511;-70
2023/09/05 08:21:22;;;;;;;;;;;34.90;60.00;;;;;;5011431;28;20275;-70
2023/09/05 08:23:50;;;;;;;;;;;34.30;59.60;;;;;;4989981;28;20298;-70
2023/09/05 08:26:16;;;;;;;;;;;33.00;62.00;;;;;;5010374;28;20371;-70
2023/09/05 08:28:43;;;;;;;;;;;33.50;62.00;;;;;;4992338;28;19952;-70
2023/09/05 08:31:09;;;;;;;;;;;34.90;60.60;;;;;;5008047;28;20352;-70
2023/09/05 08:33:35;;;;;;;;;;;35.30;59.50;;;;;;5014657;28;20016;-69
2023/09/05 08:36:00;;;;;;;;;;;33.40;59.20;;;;;;5003062;28;20260;-70
2023/09/05 08:38:26;;;;;;;;;;;32.00;61.60;;;;;;5009150;28;19909;-69
2023/09/05 08:40:52;;;;;;;;;;;32.00;61.60;;;;;;5004215;28;19915;-70
2023/09/05 08:43:17;;;;;;;;;;;31.70;61.10;;;;;;5009224;28;20893;-70
2023/09/05 08:45:46;;;;;;;;;;;32.80;61.50;;;;;;4988242;28;20300;-70
2023/09/05 08:48:12;;;;;;;;;;;33.70;59.20;;;;;;5017776;28;19936;-70
2023/09/05 08:50:39;;;;;;;;;;;33.40;59.80;;;;;;5009278;28;19905;-71
2023/09/05 08:53:10;;;;;;;;;;;33.80;58.70;;;;;;5007132;28;19916;-70
2023/09/05 08:55:37;;;;;;;;;;;34.30;57.90;;;;;;5012636;28;19916;-70
2023/09/05 08:58:03;;;;;;;;;;;32.70;58.50;;;;;;5008599;28;19909;-70
2023/09/05 09:00:29;;;;;;;;;;;31.60;59.60;;;;;;5011783;28;19928;-70
2023/09/05 09:02:55;;;;;;;;;;;31.50;61.00;;;;;;4988497;28;20438;-69
2023/09/05 09:05:21;;;;;;;;;;;30.00;62.20;;;;;;5011478;28;20008;-69
2023/09/05 09:07:46;;;;;;;;;;;30.60;61.40;;;;;;5007638;28;19913;-69
2023/09/05 09:10:30;;;;;;;;;;;30.30;60.60;;;;;;5007959;28;20416;-70
2023/09/05 09:13:13;;;;;;;;;;;31.60;59.90;;;;;;5009804;28;20331;-71
2023/09/05 09:15:40;;;;;;;;;;;32.60;58.00;;;;;;5000560;28;19908;-71
2023/09/05 09:18:09;;;;;;;;;;;34.30;57.90;;;;;;5009611;28;19916;-70
2023/09/05 09:20:42;;;;;;;;;;;34.60;56.10;;;;;;5006127;28;19909;-70
2023/09/05 09:23:07;;;;;;;;;;;33.50;55.90;;;;;;5012028;28;19909;-70
2023/09/05 09:25:33;;;;;;;;;;;32.10;57.40;;;;;;5010644;28;19905;-69
2023/09/05 09:27:58;;;;;;;;;;;32.60;57.50;;;;;;5005242;28;20315;-70
2023/09/05 09:30:25;;;;;;;;;;;32.80;57.20;;;;;;5005228;28;20366;-71
2023/09/05 09:32:51;;;;;;;;;;;34.10;56.90;;;;;;4987789;28;19962;-71
2023/09/05 09:35:17;;;;;;;;;;;34.10;56.20;;;;;;5011306;28;19942;-70
2023/09/05 09:37:44;;;;;;;;;;;35.10;56.00;;;;;;5007898;28;19905;-70
2023/09/05 09:40:11;;;;;;;;;;;34.90;55.90;;;;;;5006151;28;19912;-70
2023/09/05 09:42:37;;;;;;;;;;;33.30;57.00;;;;;;4991399;28;19923;-70
2023/09/05 09:45:07;;;;;;;;;;;32.60;57.30;;;;;;5008027;28;19909;-70
2023/09/05 09:47:34;;;;;;;;;;;33.30;56.90;;;;;;5010215;28;19991;-70
2023/09/05 09:50:01;;;;;;;;;;;34.80;56.90;;;;;;5002841;28;20047;-70
2023/09/05 09:52:29;;;;;;;;;;;34.90;55.10;;;;;;5012714;28;19909;-70
2023/09/05 09:54:56;;;;;;;;;;;33.80;55.90;;;;;;5015666;28;19913;-69
2023/09/05 09:57:25;;;;;;;;;;;33.60;56.00;;;;;;5012568;28;20257;-69
2023/09/05 09:59:53;;;;;;;;;;;32.60;56.70;;;;;;5010122;28;20426;-68
2023/09/05 10:02:20;;;;;;;;;;;31.60;57.60;;;;;;5011716;28;20512;-69
2023/09/05 10:04:46;;;;;;;;;;;32.50;57.70;;;;;;5011546;28;20001;-69
2023/09/05 10:07:14;;;;;;;;;;;33.50;57.00;;;;;;5007750;28;19912;-70
2023/09/05 10:09:40;;;;;;;;;;;34.20;57.10;;;;;;5011358;28;19963;-70
2023/09/05 10:12:07;;;;;;;;;;;34.60;55.60;;;;;;5011917;28;20408;-70
2023/09/05 10:14:34;;;;;;;;;;;34.00;55.50;;;;;;5015022;28;20007;-70
2023/09/05 10:17:00;;;;;;;;;;;34.90;56.10;;;;;;5008265;28;19948;-70
2023/09/05 10:19:26;;;;;;;;;;;36.00;55.40;;;;;;5008984;28;20336;-70
2023/09/05 10:21:53;;;;;;;;;;;36.20;54.00;;;;;;5013829;28;19944;-70
2023/09/05 10:24:19;;;;;;;;;;;36.10;54.20;;;;;;4996081;28;20364;-70
2023/09/05 10:26:47;;;;;;;;;;;35.30;54.50;;;;;;5017329;28;19928;-70
2023/09/05 10:29:40;;;;;;;;;;;35.00;54.30;;;;;;5009817;28;19909;-69
2023/09/05 10:32:06;;;;;;;;;;;35.30;53.70;;;;;;5009838;28;19960;-70
2023/09/05 10:34:47;;;;;;;;;;;33.70;55.70;;;;;;5010502;28;19947;-70
2023/09/05 10:37:19;;;;;;;;;;;35.80;54.30;;;;;;5009476;28;19924;-70
2023/09/05 10:39:46;;;;;;;;;;;37.30;53.10;;;;;;4991880;28;19923;-69
2023/09/05 10:42:12;;;;;;;;;;;38.00;52.50;;;;;;5012493;28;19924;-70
2023/09/05 10:44:41;;;;;;;;;;;37.30;52.40;;;;;;5011718;28;20395;-70
2023/09/05 10:47:26;;;;;;;;;;;36.30;52.60;;;;;;5011237;28;19959;-70
2023/09/05 10:50:05;;;;;;;;;;;36.20;52.90;;;;;;5013713;28;19916;-70
2023/09/05 10:52:31;;;;;;;;;;;37.10;52.60;;;;;;5003169;28;19952;-69
2023/09/05 10:54:58;;;;;;;;;;;36.70;51.70;;;;;;5014344;28;19968;-70
2023/09/05 10:57:42;;;;;;;;;;;36.30;52.40;;;;;;5008358;28;19944;-70
2023/09/05 11:00:20;;;;;;;;;;;36.10;52.70;;;;;;5010200;28;20035;-70
2023/09/05 11:02:47;;;;;;;;;;;32.50;53.80;;;;;;5010128;28;20367;-69
2023/09/05 11:05:14;;;;;;;;;;;30.40;56.20;;;;;;5012794;28;19924;-70
2023/09/05 11:07:43;;;;;;;;;;;28.70;59.70;;;;;;5010063;28;19944;-69
2023/09/05 11:10:11;;;;;;;;;;;27.80;59.90;;;;;;5013464;28;19905;-69
2023/09/05 11:12:38;;;;;;;;;;;27.20;61.90;;;;;;5010713;28;19931;-69
2023/09/05 11:15:05;;;;;;;;;;;26.40;63.40;;;;;;5008405;28;19913;-69
2023/09/05 11:17:30;;;;;;;;;;;26.10;63.90;;;;;;5009431;28;19915;-69
2023/09/05 11:19:56;;;;;;;;;;;26.10;63.60;;;;;;5012016;28;19909;-69
2023/09/05 11:22:24;;;;;;;;;;;26.30;64.20;;;;;;5009174;28;20750;-69
2023/09/05 11:24:54;;;;;;;;;;;26.50;63.20;;;;;;5012775;28;19920;-69
2023/09/05 11:27:21;;;;;;;;;;;26.60;63.30;;;;;;5010258;28;19912;-69
2023/09/05 11:29:46;;;;;;;;;;;26.20;62.20;;;;;;4996595;28;19912;-68
2023/09/05 11:32:14;;;;;;;;;;;26.30;63.00;;;;;;5015772;28;20371;-69
2023/09/05 11:34:44;;;;;;;;;;;26.30;62.10;;;;;;5005529;28;19905;-68
2023/09/05 11:37:14;;;;;;;;;;;26.30;61.70;;;;;;5007890;28;19912;-69
2023/09/05 11:39:39;;;;;;;;;;;26.10;62.10;;;;;;5003613;28;19905;-70
2023/09/05 11:42:14;;;;;;;;;;;25.80;62.70;;;;;;5011699;28;20276;-70
2023/09/05 11:44:40;;;;;;;;;;;25.90;63.00;;;;;;5008931;28;20007;-70
2023/09/05 11:47:06;;;;;;;;;;;25.90;63.30;;;;;;5007890;28;20534;-69
2023/09/05 11:49:32;;;;;;;;;;;25.90;63.30;;;;;;5011382;28;19913;-70
2023/09/05 11:52:00;;;;;;;;;;;25.60;63.70;;;;;;5012665;28;19909;-69
2023/09/05 11:54:26;;;;;;;;;;;24.90;65.10;;;;;;5005500;28;19916;-70
2023/09/05 11:56:52;;;;;;;;;;;25.10;65.30;;;;;;4996018;28;20221;-70
2023/09/05 11:59:18;;;;;;;;;;;25.20;64.80;;;;;;5009742;28;19925;-69
2023/09/05 12:01:43;;;;;;;;;;;25.50;64.90;;;;;;5011985;28;19980;-64
2023/09/05 12:04:09;;;;;;;;;;;26.10;65.00;;;;;;5002297;28;19981;-64
2023/09/05 12:06:35;;;;;;;;;;;26.20;63.50;;;;;;5011248;28;19909;-64
2023/09/05 12:09:00;;;;;;;;;;;26.00;63.40;;;;;;5005588;28;19909;-65
2023/09/05 12:11:26;;;;;;;;;;;26.20;62.80;;;;;;5013302;28;19905;-64
2023/09/05 12:13:55;;;;;;;;;;;26.00;63.20;;;;;;5009930;28;19936;-64
2023/09/05 12:16:21;;;;;;;;;;;25.90;62.90;;;;;;5006667;28;20328;-64
2023/09/05 12:18:48;;;;;;;;;;;25.60;62.70;;;;;;4990261;28;20312;-64
2023/09/05 12:21:13;;;;;;;;;;;25.40;64.00;;;;;;5015427;28;20732;-64
2023/09/05 12:23:39;;;;;;;;;;;25.60;64.10;;;;;;5006774;28;19905;-64
2023/09/05 12:26:06;;;;;;;;;;;25.80;64.20;;;;;;5012307;28;19959;-64
2023/09/05 12:28:32;;;;;;;;;;;25.60;64.10;;;;;;5009032;28;19905;-64
2023/09/05 12:31:12;;;;;;;;;;;25.60;64.70;;;;;;5011301;28;20443;-64
2023/09/05 12:33:38;;;;;;;;;;;25.90;64.80;;;;;;4993156;28;19913;-63
2023/09/05 12:36:04;;;;;;;;;;;25.90;63.90;;;;;;5006625;28;19981;-63
2023/09/05 12:38:29;;;;;;;;;;;25.90;63.40;;;;;;5008569;28;19951;-64
2023/09/05 12:40:56;;;;;;;;;;;25.60;63.10;;;;;;5002806;28;19986;-66
2023/09/05 12:43:24;;;;;;;;;;;25.60;64.00;;;;;;5017424;28;20335;-66
2023/09/05 12:45:49;;;;;;;;;;;25.80;63.50;;;;;;5004129;28;20425;-65
2023/09/05 12:48:15;;;;;;;;;;;25.90;64.20;;;;;;5010800;28;19913;-66
2023/09/05 12:50:44;;;;;;;;;;;26.10;63.70;;;;;;4993632;28;19955;-66
2023/09/05 12:53:10;;;;;;;;;;;26.20;62.90;;;;;;5010256;28;19913;-66
2023/09/05 12:55:36;;;;;;;;;;;26.10;64.20;;;;;;5010317;28;19924;-66
2023/09/05 12:58:03;;;;;;;;;;;25.90;63.50;;;;;;5007743;28;19909;-66
2023/09/05 13:00:29;;;;;;;;;;;25.70;63.20;;;;;;5004815;28;19905;-66
2023/09/05 13:02:55;;;;;;;;;;;25.90;62.80;;;;;;5010246;28;19913;-66
2023/09/05 13:05:20;;;;;;;;;;;26.00;62.70;;;;;;5008948;28;19913;-66
2023/09/05 13:07:46;;;;;;;;;;;26.10;62.30;;;;;;5011898;28;20000;-66
2023/09/05 13:10:11;;;;;;;;;;;26.20;62.00;;;;;;5005965;28;19910;-66
2023/09/05 13:12:37;;;;;;;;;;;26.30;60.80;;;;;;5009199;28;19905;-66
2023/09/05 13:15:04;;;;;;;;;;;26.30;61.60;;;;;;4986277;28;19920;-66
2023/09/05 13:17:29;;;;;;;;;;;26.30;61.30;;;;;;5009673;28;19983;-66
2023/09/05 13:19:55;;;;;;;;;;;26.40;61.10;;;;;;5003704;28;19914;-67
2023/09/05 13:22:20;;;;;;;;;;;26.10;62.20;;;;;;5007930;28;19916;-66
2023/09/05 13:24:46;;;;;;;;;;;25.90;62.10;;;;;;5012145;28;19968;-64
2023/09/05 13:27:12;;;;;;;;;;;25.70;63.30;;;;;;5012108;28;20008;-65
2023/09/05 13:29:38;;;;;;;;;;;25.60;63.30;;;;;;5009137;28;19988;-66
2023/09/05 13:32:07;;;;;;;;;;;25.50;63.50;;;;;;5014072;28;20000;-66
2023/09/05 13:34:33;;;;;;;;;;;25.60;63.00;;;;;;5010202;28;19952;-67
2023/09/05 13:36:58;;;;;;;;;;;25.60;63.30;;;;;;5007122;28;20481;-67
2023/09/05 13:39:26;;;;;;;;;;;25.90;63.10;;;;;;5003104;28;19905;-66
2023/09/05 13:41:53;;;;;;;;;;;25.90;62.80;;;;;;4995658;28;19912;-65
2023/09/05 13:44:18;;;;;;;;;;;25.90;64.10;;;;;;5010951;28;19924;-66
2023/09/05 13:46:46;;;;;;;;;;;25.90;63.40;;;;;;5016489;28;19913;-66
2023/09/05 13:49:11;;;;;;;;;;;25.80;64.30;;;;;;5016387;28;19905;-67
2023/09/05 13:51:37;;;;;;;;;;;25.80;63.40;;;;;;5009216;28;20754;-67
2023/09/05 13:54:03;;;;;;;;;;;25.70;62.20;;;;;;5013868;28;20298;-68
2023/09/05 13:56:29;;;;;;;;;;;25.80;62.20;;;;;;5009748;28;20647;-68
2023/09/05 13:58:54;;;;;;;;;;;25.90;62.30;;;;;;5011452;28;20007;-71
2023/09/05 14:01:20;;;;;;;;;;;25.90;63.10;;;;;;5014209;28;19921;-70
2023/09/05 14:03:47;;;;;;;;;;;26.00;62.50;;;;;;5013959;28;20379;-71
2023/09/05 14:06:14;;;;;;;;;;;25.90;62.60;;;;;;5009851;28;19909;-70
2023/09/05 14:08:40;;;;;;;;;;;25.80;62.70;;;;;;5012256;28;19935;-71
2023/09/05 14:11:06;;;;;;;;;;;25.70;63.10;;;;;;5008799;28;20408;-70
2023/09/05 14:13:32;;;;;;;;;;;25.70;62.80;;;;;;5012410;28;20026;-70
2023/09/05 14:15:59;;;;;;;;;;;25.60;63.20;;;;;;5010131;28;19912;-69
2023/09/05 14:18:25;;;;;;;;;;;25.60;62.70;;;;;;5002153;28;20000;-69
2023/09/05 14:20:51;;;;;;;;;;;25.60;63.00;;;;;;4995617;28;20000;-68
2023/09/05 14:23:16;;;;;;;;;;;25.40;63.60;;;;;;5012682;28;20667;-67
2023/09/05 14:25:42;;;;;;;;;;;25.40;63.70;;;;;;5011510;28;19909;-71
2023/09/05 14:28:08;;;;;;;;;;;25.40;63.40;;;;;;4986317;28;19909;-68
2023/09/05 14:30:33;;;;;;;;;;;25.30;64.30;;;;;;5011019;28;19920;-71
2023/09/05 14:32:59;;;;;;;;;;;25.10;65.00;;;;;;5014459;28;20113;-71
2023/09/05 14:35:25;;;;;;;;;;;25.20;65.20;;;;;;5014072;28;19921;-65
2023/09/05 14:37:51;;;;;;;;;;;25.10;65.30;;;;;;5009627;28;20006;-68
2023/09/05 14:40:16;;;;;;;;;;;25.20;64.90;;;;;;4990672;28;20565;-69
2023/09/05 14:42:42;;;;;;;;;;;25.20;63.90;;;;;;5009860;28;20485;-68
2023/09/05 14:45:10;;;;;;;;;;;25.10;64.20;;;;;;4997551;28;19909;-72
2023/09/05 14:47:36;;;;;;;;;;;25.20;64.90;;;;;;5013653;28;19920;-69
2023/09/05 14:50:02;;;;;;;;;;;25.20;64.70;;;;;;5013413;28;19912;-68
2023/09/05 14:52:33;;;;;;;;;;;25.10;65.00;;;;;;5013042;28;19909;-69
2023/09/05 14:54:59;;;;;;;;;;;25.10;65.40;;;;;;5013531;28;19912;-72
2023/09/05 14:57:25;;;;;;;;;;;25.10;65.60;;;;;;5012017;28;19909;-72
2023/09/05 14:59:50;;;;;;;;;;;25.00;65.70;;;;;;4998132;28;19913;-69